createdAt,value
2022-08-26T00:02:12.640Z,27.70
2022-08-26T00:04:41.316Z,27.60
2022-08-26T00:07:09.645Z,27.60
2022-08-26T00:09:40.239Z,27.60
2022-08-26T00:12:12.460Z,27.60
2022-08-26T00:14:42.022Z,27.60
2022-08-26T00:17:10.582Z,27.50
2022-08-26T00:19:40.156Z,27.50
2022-08-26T00:22:08.429Z,27.50
2022-08-26T00:24:36.449Z,27.50
2022-08-26T00:27:04.805Z,27.50
2022-08-26T00:29:37.362Z,27.50
2022-08-26T00:32:07.694Z,27.40
2022-08-26T00:34:36.521Z,27.40
2022-08-26T00:37:05.087Z,27.40
2022-08-26T00:39:37.854Z,27.40
2022-08-26T00:42:06.229Z,27.40
2022-08-26T00:44:34.149Z,27.30
2022-08-26T00:47:09.281Z,27.30
2022-08-26T00:49:44.851Z,27.30
2022-08-26T00:52:19.145Z,27.30
2022-08-26T00:54:56.148Z,27.20
2022-08-26T00:57:25.443Z,27.20
2022-08-26T00:59:59.843Z,27.20
2022-08-26T01:02:30.154Z,27.20
2022-08-26T01:05:03.205Z,27.20
2022-08-26T01:07:33.295Z,27.20
2022-08-26T01:10:08.683Z,27.10
2022-08-26T01:12:45.091Z,27.10
2022-08-26T01:15:21.233Z,27.10
2022-08-26T01:17:50.816Z,27.10
2022-08-26T01:20:37.941Z,27.00
2022-08-26T01:23:10.073Z,27.00
2022-08-26T01:25:43.122Z,27.00
2022-08-26T01:28:17.648Z,27.00
2022-08-26T01:30:49.061Z,27.00
2022-08-26T01:33:21.794Z,27.00
2022-08-26T01:35:51.749Z,27.00
2022-08-26T01:38:21.596Z,27.00
2022-08-26T01:40:51.934Z,27.00
2022-08-26T01:43:27.276Z,26.90
2022-08-26T01:45:56.906Z,26.90
2022-08-26T01:48:31.781Z,26.90
2022-08-26T01:51:01.693Z,26.90
2022-08-26T01:53:32.448Z,26.80
2022-08-26T01:56:03.807Z,26.80
2022-08-26T01:58:39.010Z,26.80
2022-08-26T02:01:08.778Z,26.80
2022-08-26T02:03:52.193Z,26.70
2022-08-26T02:06:20.583Z,26.80
2022-08-26T02:08:55.029Z,26.70
2022-08-26T02:11:23.243Z,26.70
2022-08-26T02:13:57.368Z,26.70
2022-08-26T02:16:32.816Z,26.70
2022-08-26T02:19:03.137Z,26.70
2022-08-26T02:21:33.069Z,26.70
2022-08-26T02:24:13.285Z,26.60
2022-08-26T02:26:42.806Z,26.60
2022-08-26T02:29:21.283Z,26.60
2022-08-26T02:31:49.419Z,26.60
2022-08-26T02:34:31.337Z,26.50
2022-08-26T02:37:01.608Z,26.50
2022-08-26T02:39:32.432Z,26.50
2022-08-26T02:42:01.403Z,26.50
2022-08-26T02:44:29.664Z,26.50
2022-08-26T02:46:58.045Z,26.50
2022-08-26T02:49:28.335Z,26.50
2022-08-26T02:51:56.307Z,26.50
2022-08-26T02:54:24.934Z,26.50
2022-08-26T02:56:54.676Z,26.40
2022-08-26T02:59:24.305Z,26.40
2022-08-26T03:01:52.611Z,26.40
2022-08-26T03:04:25.838Z,26.40
2022-08-26T03:06:55.323Z,26.40
2022-08-26T03:09:23.572Z,26.40
2022-08-26T03:11:52.023Z,26.40
2022-08-26T03:14:21.271Z,26.30
2022-08-26T03:16:54.421Z,26.30
2022-08-26T03:19:24.696Z,26.30
2022-08-26T03:21:57.837Z,26.30
2022-08-26T03:24:26.883Z,26.30
2022-08-26T03:26:54.882Z,26.30
2022-08-26T03:29:42.495Z,26.20
2022-08-26T03:32:11.525Z,26.20
2022-08-26T03:34:39.529Z,26.20
2022-08-26T03:37:07.724Z,26.20
2022-08-26T03:39:36.792Z,26.20
2022-08-26T03:42:05.879Z,26.20
2022-08-26T03:44:35.521Z,26.20
2022-08-26T03:47:03.631Z,26.10
2022-08-26T03:49:35.276Z,26.10
2022-08-26T03:52:04.237Z,26.10
2022-08-26T03:54:32.505Z,26.10
2022-08-26T03:57:00.838Z,26.10
2022-08-26T03:59:29.415Z,26.10
2022-08-26T04:01:58.961Z,26.10
2022-08-26T04:04:27.108Z,26.10
2022-08-26T04:06:59.191Z,26.00
2022-08-26T04:09:28.615Z,26.00
2022-08-26T04:11:57.377Z,26.00
2022-08-26T04:14:28.460Z,26.00
2022-08-26T04:16:58.579Z,26.00
2022-08-26T04:19:27.444Z,26.00
2022-08-26T04:21:55.733Z,26.00
2022-08-26T04:24:28.111Z,25.90
2022-08-26T04:26:56.570Z,25.90
2022-08-26T04:29:27.578Z,25.90
2022-08-26T04:31:58.569Z,25.90
2022-08-26T04:34:29.291Z,25.90
2022-08-26T04:36:58.117Z,25.90
2022-08-26T04:39:27.740Z,25.90
2022-08-26T04:41:57.753Z,25.90
2022-08-26T04:44:29.357Z,25.80
2022-08-26T04:46:59.537Z,25.80
2022-08-26T04:49:28.008Z,25.80
2022-08-26T04:52:05.002Z,25.80
2022-08-26T04:54:33.172Z,25.80
2022-08-26T04:57:01.121Z,25.80
2022-08-26T04:59:29.094Z,25.80
2022-08-26T05:01:59.605Z,25.80
2022-08-26T05:04:27.688Z,25.80
2022-08-26T05:06:59.382Z,25.80
2022-08-26T05:09:30.962Z,25.80
2022-08-26T05:11:58.908Z,25.80
2022-08-26T05:14:26.830Z,25.80
2022-08-26T05:16:55.669Z,25.80
2022-08-26T05:19:25.709Z,25.80
2022-08-26T05:21:55.943Z,25.80
2022-08-26T05:24:24.303Z,25.80
2022-08-26T05:26:52.293Z,25.80
2022-08-26T05:29:20.206Z,25.80
2022-08-26T05:31:51.335Z,25.80
2022-08-26T05:34:20.745Z,25.80
2022-08-26T05:36:51.004Z,25.80
2022-08-26T05:39:19.292Z,25.80
2022-08-26T05:41:47.574Z,25.80
2022-08-26T05:44:18.917Z,25.80
2022-08-26T05:46:47.054Z,25.80
2022-08-26T05:49:16.562Z,25.90
2022-08-26T05:51:47.654Z,25.90
2022-08-26T05:54:21.710Z,25.90
2022-08-26T05:56:51.864Z,25.90
2022-08-26T05:59:24.162Z,25.90
2022-08-26T06:01:54.603Z,25.90
2022-08-26T06:04:27.107Z,25.90
2022-08-26T06:06:57.211Z,25.90
2022-08-26T06:09:27.740Z,25.90
2022-08-26T06:11:58.654Z,26.00
2022-08-26T06:14:27.262Z,26.00
2022-08-26T06:16:55.617Z,26.00
2022-08-26T06:19:24.248Z,26.00
2022-08-26T06:21:54.870Z,26.00
2022-08-26T06:24:41.009Z,26.10
2022-08-26T06:27:13.652Z,26.10
2022-08-26T06:29:41.854Z,26.10
2022-08-26T06:32:09.828Z,26.10
2022-08-26T06:34:38.432Z,26.20
2022-08-26T06:37:07.257Z,26.20
2022-08-26T06:39:35.678Z,26.20
2022-08-26T06:42:10.926Z,26.20
2022-08-26T06:44:41.127Z,26.30
2022-08-26T06:47:09.246Z,26.30
2022-08-26T06:49:37.239Z,26.30
2022-08-26T06:52:05.645Z,26.40
2022-08-26T06:54:33.657Z,26.40
2022-08-26T06:57:01.962Z,26.40
2022-08-26T06:59:31.362Z,26.50
2022-08-26T07:01:59.677Z,26.50
2022-08-26T07:04:28.189Z,26.50
2022-08-26T07:06:57.482Z,26.60
2022-08-26T07:09:29.215Z,26.60
2022-08-26T07:11:57.759Z,26.70
2022-08-26T07:14:26.377Z,26.80
2022-08-26T07:16:56.158Z,26.80
2022-08-26T07:19:30.281Z,26.90
2022-08-26T07:22:01.776Z,27.00
2022-08-26T07:24:31.055Z,27.10
2022-08-26T07:27:01.680Z,27.10
2022-08-26T07:29:32.341Z,27.30
2022-08-26T07:32:01.999Z,27.30
2022-08-26T07:34:32.207Z,27.40
2022-08-26T07:37:01.495Z,27.50
2022-08-26T07:39:31.877Z,27.60
2022-08-26T07:42:07.404Z,27.70
2022-08-26T07:44:37.387Z,27.70
2022-08-26T07:47:24.126Z,27.80
2022-08-26T07:49:57.269Z,27.90
2022-08-26T07:52:28.619Z,28.00
2022-08-26T07:54:58.241Z,28.10
2022-08-26T07:57:27.543Z,28.30
2022-08-26T07:59:56.320Z,28.40
2022-08-26T08:02:28.399Z,28.50
2022-08-26T08:04:58.327Z,28.60
2022-08-26T08:07:44.513Z,28.70
2022-08-26T08:10:18.031Z,28.90
2022-08-26T08:12:47.040Z,29.00
2022-08-26T08:15:17.579Z,29.10
2022-08-26T08:17:46.971Z,29.30
2022-08-26T08:20:19.420Z,29.40
2022-08-26T08:22:47.642Z,29.60
2022-08-26T08:25:15.882Z,29.70
2022-08-26T08:27:46.277Z,29.80
2022-08-26T08:30:20.771Z,30.00
2022-08-26T08:32:52.445Z,30.20
2022-08-26T08:35:22.539Z,30.30
2022-08-26T08:37:54.320Z,30.40
2022-08-26T08:40:26.213Z,30.50
2022-08-26T08:43:03.595Z,30.70
2022-08-26T08:45:37.423Z,30.80
2022-08-26T08:48:15.651Z,31.00
2022-08-26T08:50:48.509Z,31.20
2022-08-26T08:53:24.113Z,31.30
2022-08-26T08:56:08.107Z,31.40
2022-08-26T08:58:53.346Z,31.40
2022-08-26T09:01:43.107Z,31.50
2022-08-26T09:04:35.242Z,31.50
2022-08-26T09:07:06.156Z,31.50
2022-08-26T09:09:39.379Z,31.50
2022-08-26T09:12:13.954Z,31.50
2022-08-26T09:14:42.028Z,31.50
2022-08-26T09:17:25.018Z,31.40
2022-08-26T09:20:04.565Z,31.40
2022-08-26T09:22:36.506Z,31.40
2022-08-26T09:25:11.269Z,31.30
2022-08-26T09:27:46.687Z,31.30
2022-08-26T09:30:27.385Z,31.20
2022-08-26T09:33:02.448Z,31.20
2022-08-26T09:35:36.435Z,31.20
2022-08-26T09:38:26.912Z,31.10
2022-08-26T10:30:53.698Z,26.10
2022-08-26T10:33:22.057Z,26.90
2022-08-26T10:35:56.155Z,27.50
2022-08-26T10:38:34.572Z,28.00
2022-08-26T10:41:10.765Z,28.30
2022-08-26T10:43:48.039Z,28.70
2022-08-26T10:46:27.419Z,28.90
2022-08-26T10:49:06.730Z,29.10
2022-08-26T10:51:42.220Z,29.30
2022-08-26T10:54:23.984Z,29.40
2022-08-26T10:57:03.444Z,29.50
2022-08-26T10:59:48.996Z,29.60
2022-08-26T11:02:29.489Z,29.70
2022-08-26T11:05:02.908Z,29.80
2022-08-26T11:07:44.238Z,29.80
2022-08-26T11:10:57.915Z,29.90
2022-08-26T11:14:02.570Z,29.90
2022-08-26T11:16:36.606Z,30.00
2022-08-26T11:20:00.309Z,30.00
2022-08-26T11:22:32.531Z,30.00
2022-08-26T11:25:09.511Z,30.00
2022-08-26T11:28:07.599Z,30.00
2022-08-26T11:30:57.025Z,30.10
2022-08-26T11:34:00.730Z,30.10
2022-08-26T11:37:01.352Z,30.10
2022-08-26T11:39:53.860Z,30.10
2022-08-26T11:42:35.802Z,30.10
2022-08-26T11:45:23.780Z,30.10
2022-08-26T11:47:52.387Z,30.20
2022-08-26T11:50:26.122Z,30.20
2022-08-26T11:53:02.360Z,30.20
2022-08-26T11:55:32.254Z,30.30
2022-08-26T11:58:05.036Z,30.30
2022-08-26T12:00:50.951Z,30.20
2022-08-26T12:03:23.908Z,30.30
2022-08-26T12:05:54.484Z,30.30
2022-08-26T12:08:31.169Z,30.20
2022-08-26T12:11:09.659Z,30.30
2022-08-26T12:13:39.247Z,30.40
2022-08-26T12:16:08.368Z,30.40
2022-08-26T12:18:39.723Z,30.40
2022-08-26T12:21:16.152Z,30.40
2022-08-26T12:23:50.080Z,30.40
2022-08-26T12:26:27.033Z,30.40
2022-08-26T12:29:00.431Z,30.40
2022-08-26T12:31:34.374Z,30.40
2022-08-26T12:34:17.630Z,30.40
2022-08-26T12:36:50.751Z,30.40
2022-08-26T12:39:30.348Z,30.30
2022-08-26T12:42:00.655Z,30.40
2022-08-26T12:44:53.894Z,30.40
2022-08-26T12:47:41.958Z,30.50
2022-08-26T12:50:21.200Z,30.40
2022-08-26T12:53:00.028Z,30.50
2022-08-26T12:55:40.798Z,30.50
2022-08-26T12:58:22.306Z,30.50
2022-08-26T13:00:52.085Z,30.60
2022-08-26T13:03:44.848Z,30.50
2022-08-26T13:06:29.979Z,30.50
2022-08-26T13:09:01.742Z,30.50
2022-08-26T13:11:34.055Z,30.60
2022-08-26T13:14:07.526Z,30.60
2022-08-26T13:16:36.896Z,30.70
2022-08-26T13:19:10.388Z,30.70
2022-08-26T13:21:47.808Z,30.70
2022-08-26T13:24:20.581Z,30.80
2022-08-26T13:26:51.097Z,30.80
2022-08-26T13:29:20.355Z,30.80
2022-08-26T13:31:48.967Z,30.80
2022-08-26T13:34:21.408Z,30.80
2022-08-26T13:36:52.323Z,30.90
2022-08-26T13:39:21.191Z,30.90
2022-08-26T13:41:51.451Z,30.90
2022-08-26T13:44:19.877Z,31.00
2022-08-26T13:46:48.287Z,31.00
2022-08-26T13:49:16.556Z,31.00
2022-08-26T13:51:45.032Z,31.00
2022-08-26T13:54:13.072Z,31.00
2022-08-26T13:56:41.377Z,31.00
2022-08-26T13:59:11.093Z,31.00
2022-08-26T14:01:40.096Z,31.00
2022-08-26T14:04:08.905Z,31.00
2022-08-26T14:06:37.476Z,30.90
2022-08-26T14:09:06.114Z,30.90
2022-08-26T14:11:54.058Z,30.90
2022-08-26T14:14:23.464Z,30.90
2022-08-26T14:16:59.251Z,30.80
2022-08-26T14:19:30.567Z,30.90
2022-08-26T14:22:00.966Z,30.80
2022-08-26T14:24:30.139Z,30.80
2022-08-26T14:26:58.691Z,30.80
2022-08-26T14:29:28.753Z,30.80
2022-08-26T14:31:59.613Z,30.80
2022-08-26T14:34:27.736Z,30.80
2022-08-26T14:36:55.659Z,30.80
2022-08-26T14:39:23.812Z,30.80
2022-08-26T14:41:57.394Z,30.80
2022-08-26T14:44:30.501Z,30.80
2022-08-26T14:47:01.309Z,30.80
2022-08-26T14:49:31.072Z,30.80
2022-08-26T14:51:59.269Z,30.80
2022-08-26T14:54:28.807Z,30.80
2022-08-26T14:57:01.081Z,30.70
2022-08-26T14:59:33.078Z,30.70
2022-08-26T15:02:01.645Z,30.70
2022-08-26T15:04:30.574Z,30.70
2022-08-26T15:07:00.725Z,30.70
2022-08-26T15:09:30.960Z,30.70
2022-08-26T15:11:59.003Z,30.70
2022-08-26T15:14:32.665Z,30.70
2022-08-26T15:17:02.555Z,30.70
2022-08-26T15:19:30.547Z,30.70
2022-08-26T15:21:58.692Z,30.70
2022-08-26T15:24:28.857Z,30.70
2022-08-26T15:26:56.957Z,30.70
2022-08-26T15:29:25.161Z,30.70
2022-08-26T15:31:57.205Z,30.60
2022-08-26T15:34:27.070Z,30.60
2022-08-26T15:36:55.243Z,30.60
2022-08-26T15:39:23.280Z,30.60
2022-08-26T15:41:51.758Z,30.60
2022-08-26T15:44:19.851Z,30.60
2022-08-26T15:46:53.296Z,30.60
2022-08-26T15:49:23.957Z,30.50
2022-08-26T15:51:53.473Z,30.50
2022-08-26T15:54:24.730Z,30.50
2022-08-26T15:56:53.739Z,30.50
2022-08-26T15:59:23.286Z,30.50
2022-08-26T16:01:52.595Z,30.50
2022-08-26T16:04:21.321Z,30.50
2022-08-26T16:06:52.080Z,30.50
2022-08-26T16:09:24.313Z,30.40
2022-08-26T16:11:52.827Z,30.40
2022-08-26T16:14:21.416Z,30.40
2022-08-26T16:16:50.478Z,30.40
2022-08-26T16:19:19.092Z,30.40
2022-08-26T16:21:48.013Z,30.40
2022-08-26T16:24:16.129Z,30.40
2022-08-26T16:26:46.169Z,30.30
2022-08-26T16:29:17.951Z,30.30
2022-08-26T16:31:47.552Z,30.30
2022-08-26T16:34:15.515Z,30.30
2022-08-26T16:36:43.656Z,30.30
2022-08-26T16:39:12.151Z,30.30
2022-08-26T16:41:40.592Z,30.30
2022-08-26T16:44:11.417Z,30.20
2022-08-26T16:46:41.093Z,30.30
2022-08-26T16:49:09.420Z,30.30
2022-08-26T16:51:38.106Z,30.20
2022-08-26T16:54:08.868Z,30.20
2022-08-26T16:56:37.909Z,30.20
2022-08-26T16:59:12.381Z,30.20
2022-08-26T17:01:40.548Z,30.20
2022-08-26T17:04:08.829Z,30.20
2022-08-26T17:06:38.223Z,30.20
2022-08-26T17:09:06.402Z,30.10
2022-08-26T17:11:35.273Z,30.20
2022-08-26T17:14:03.314Z,30.10
2022-08-26T17:16:33.126Z,30.10
2022-08-26T17:19:02.311Z,30.10
2022-08-26T17:21:30.687Z,30.10
2022-08-26T17:23:59.266Z,30.00
2022-08-26T17:26:27.983Z,30.00
2022-08-26T17:28:56.812Z,30.00
2022-08-26T17:31:25.892Z,30.00
2022-08-26T17:33:56.709Z,30.00
2022-08-26T17:36:28.160Z,30.00
2022-08-26T17:38:57.763Z,29.90
2022-08-26T17:41:26.195Z,29.90
2022-08-26T17:43:54.244Z,29.90
2022-08-26T17:46:22.519Z,29.90
2022-08-26T17:48:50.508Z,29.90
2022-08-26T17:51:20.921Z,29.80
2022-08-26T17:53:50.450Z,29.90
2022-08-26T17:56:23.979Z,29.80
2022-08-26T17:58:53.576Z,29.80
2022-08-26T18:01:26.146Z,29.80
2022-08-26T18:04:00.157Z,29.80
2022-08-26T18:06:31.393Z,29.80
2022-08-26T18:09:00.597Z,29.70
2022-08-26T18:11:30.041Z,29.70
2022-08-26T18:13:59.420Z,29.70
2022-08-26T18:16:29.831Z,29.70
2022-08-26T18:18:58.405Z,29.70
2022-08-26T18:21:29.632Z,29.60
2022-08-26T18:23:57.800Z,29.60
2022-08-26T18:26:29.554Z,29.60
2022-08-26T18:28:58.346Z,29.60
2022-08-26T18:31:26.995Z,29.50
2022-08-26T18:33:56.070Z,29.60
2022-08-26T18:36:26.896Z,29.60
2022-08-26T18:38:57.385Z,29.50
2022-08-26T18:41:28.840Z,29.50
2022-08-26T18:43:57.633Z,29.50
2022-08-26T18:46:28.077Z,29.50
2022-08-26T18:48:58.369Z,29.50
2022-08-26T18:51:30.905Z,29.40
2022-08-26T18:54:04.362Z,29.40
2022-08-26T18:56:33.553Z,29.40
2022-08-26T18:59:01.717Z,29.40
2022-08-26T19:01:32.787Z,29.30
2022-08-26T19:04:03.385Z,29.40
2022-08-26T19:06:35.488Z,29.30
2022-08-26T19:09:07.918Z,29.30
2022-08-26T19:11:42.781Z,29.30
2022-08-26T19:14:14.066Z,29.30
2022-08-26T19:16:44.467Z,29.30
2022-08-26T19:19:12.619Z,29.30
2022-08-26T19:21:41.517Z,29.30
2022-08-26T19:24:17.342Z,29.20
2022-08-26T19:26:48.399Z,29.20
2022-08-26T19:31:51.102Z,29.20
2022-08-26T19:34:20.247Z,29.20
2022-08-26T19:36:49.301Z,29.20
2022-08-26T19:39:18.686Z,29.20
2022-08-26T19:41:46.647Z,29.10
2022-08-26T19:44:39.671Z,29.10
2022-08-26T19:47:11.176Z,29.10
2022-08-26T19:49:39.814Z,29.10
2022-08-26T19:52:11.080Z,29.10
2022-08-26T19:54:41.391Z,29.10
2022-08-26T19:57:09.346Z,29.10
2022-08-26T19:59:37.421Z,29.10
2022-08-26T20:02:10.134Z,29.00
2022-08-26T20:04:39.434Z,29.00
2022-08-26T20:07:07.510Z,29.00
2022-08-26T20:09:36.125Z,29.00
2022-08-26T20:12:08.485Z,29.00
2022-08-26T20:14:37.604Z,28.90
2022-08-26T20:17:07.208Z,28.90
2022-08-26T20:19:53.805Z,28.90
2022-08-26T20:22:22.423Z,28.90
2022-08-26T20:24:51.581Z,28.90
2022-08-26T20:27:27.317Z,28.90
2022-08-26T20:30:09.574Z,28.80
2022-08-26T20:32:38.497Z,28.80
2022-08-26T20:35:09.938Z,28.80
2022-08-26T20:37:38.997Z,28.80
2022-08-26T20:40:09.457Z,28.80
2022-08-26T20:42:39.033Z,28.80
2022-08-26T20:45:09.232Z,28.80
2022-08-26T20:47:37.248Z,28.80
2022-08-26T20:50:06.397Z,28.80
2022-08-26T20:52:34.493Z,28.80
2022-08-26T20:55:02.617Z,28.70
2022-08-26T20:57:30.655Z,28.70
2022-08-26T21:00:00.993Z,28.70
2022-08-26T21:02:29.301Z,28.70
2022-08-26T21:04:58.106Z,28.70
2022-08-26T21:07:26.668Z,28.60
2022-08-26T21:09:55.591Z,28.70
2022-08-26T21:12:23.594Z,28.70
2022-08-26T21:14:51.497Z,28.60
2022-08-26T21:17:20.700Z,28.60
2022-08-26T21:19:49.285Z,28.60
2022-08-26T21:22:17.641Z,28.60
2022-08-26T21:24:45.904Z,28.60
2022-08-26T21:27:14.139Z,28.60
2022-08-26T21:29:49.703Z,28.60
2022-08-26T21:32:21.632Z,28.60
2022-08-26T21:34:49.989Z,28.50
2022-08-26T21:37:18.398Z,28.50
2022-08-26T21:39:46.719Z,28.50
2022-08-26T21:42:15.337Z,28.50
2022-08-26T21:44:45.029Z,28.40
2022-08-26T21:47:23.067Z,28.40
2022-08-26T21:49:51.550Z,28.40
2022-08-26T21:52:20.223Z,28.40
2022-08-26T21:54:49.268Z,28.40
2022-08-26T21:57:18.427Z,28.40
2022-08-26T21:59:46.413Z,28.40
2022-08-26T22:02:15.080Z,28.40
2022-08-26T22:04:48.698Z,28.40
2022-08-26T22:07:19.126Z,28.40
2022-08-26T22:09:47.844Z,28.30
2022-08-26T22:12:18.072Z,28.30
2022-08-26T22:14:47.041Z,28.30
2022-08-26T22:17:15.944Z,28.30
2022-08-26T22:19:46.046Z,28.30
2022-08-26T22:22:16.106Z,28.30
2022-08-26T22:24:44.337Z,28.30
2022-08-26T22:27:13.289Z,28.30
2022-08-26T22:29:42.088Z,28.30
2022-08-26T22:32:10.432Z,28.30
2022-08-26T22:34:38.619Z,28.30
2022-08-26T22:37:08.642Z,28.30
2022-08-26T22:39:36.918Z,28.30
2022-08-26T22:42:05.989Z,28.20
2022-08-26T22:44:36.535Z,28.30
2022-08-26T22:47:04.708Z,28.20
2022-08-26T22:49:32.804Z,28.20
2022-08-26T22:52:00.885Z,28.20
2022-08-26T22:54:30.280Z,28.20
2022-08-26T22:56:58.361Z,28.20
2022-08-26T22:59:26.431Z,28.10
2022-08-26T23:01:54.585Z,28.20
2022-08-26T23:04:22.716Z,28.20
2022-08-26T23:06:50.951Z,28.20
2022-08-26T23:09:20.119Z,28.10
2022-08-26T23:11:51.052Z,28.10
2022-08-26T23:14:20.213Z,28.10
2022-08-26T23:16:48.823Z,28.10
2022-08-26T23:19:20.078Z,28.10
2022-08-26T23:21:49.346Z,28.10
2022-08-26T23:24:18.389Z,28.10
2022-08-26T23:26:47.308Z,28.10
2022-08-26T23:29:16.698Z,28.10
2022-08-26T23:31:44.765Z,28.10
2022-08-26T23:34:31.736Z,28.10
2022-08-26T23:37:00.348Z,28.00
2022-08-26T23:39:29.320Z,28.00
2022-08-26T23:41:58.054Z,28.00
2022-08-26T23:44:28.245Z,28.00
2022-08-26T23:46:56.544Z,28.00
2022-08-26T23:49:26.383Z,27.90
2022-08-26T23:52:12.799Z,28.00
2022-08-26T23:54:41.814Z,27.90
2022-08-26T23:57:10.592Z,27.90
2022-08-26T23:59:39.952Z,27.90
